Local Weather (KHSI) Ticker

20 January 2022

2022/05/23 11:53 KHSI 231153Z AUTO 17010KT 10SM OVC100 12/03 A3025 RMK AO2 SLP240 T01220028 10139 20122 56003

Click below to find out what a METAR file is and how to read it:



Feature Requests: